Time;durP1;ratioP1;P1;durP2;ratioP2;P2;SDS_P1;SDS_P2;PMS_P1;PMS_P2;Temp;Humidity;BMP_temperature;BMP_pressure;BME280_temperature;BME280_humidity;BME280_pressure;Samples;Min_cycle;Max_cycle;Signal;HPM_P1;HPM_P2
2021/10/05 00:02:23;;;;;;;0.10;0.10;;;;;;;13.51;100.00;97769.53;6337062;22;20025;-48
2021/10/05 00:05:26;;;;;;;0.20;0.10;;;;;;;13.42;100.00;97772.09;6336881;22;20079;-49
2021/10/05 00:08:29;;;;;;;0.10;0.00;;;;;;;13.32;100.00;97796.22;6336857;22;20026;-49
2021/10/05 00:11:32;;;;;;;6.82;0.38;;;;;;;13.28;100.00;97816.13;6336869;22;20099;-49
2021/10/05 00:14:35;;;;;;;0.10;0.10;;;;;;;13.24;100.00;97840.88;6337650;22;20071;-49
2021/10/05 00:17:38;;;;;;;0.10;0.10;;;;;;;13.30;100.00;97855.47;6337487;22;20021;-49
2021/10/05 00:20:41;;;;;;;0.10;0.10;;;;;;;13.32;100.00;97869.66;6338903;22;20100;-49
2021/10/05 00:23:44;;;;;;;0.20;0.20;;;;;;;13.35;100.00;97885.34;6338921;22;20631;-48
2021/10/05 00:26:47;;;;;;;0.10;0.10;;;;;;;13.38;100.00;97889.09;6339412;22;20319;-48
2021/10/05 00:29:50;;;;;;;0.25;0.25;;;;;;;13.28;100.00;97902.78;6339501;22;20018;-48
2021/10/05 00:32:53;;;;;;;0.10;0.10;;;;;;;13.25;100.00;97909.47;6339437;22;20029;-48
2021/10/05 00:35:56;;;;;;;0.10;0.10;;;;;;;13.28;100.00;97907.59;6339508;22;20505;-48
2021/10/05 00:38:59;;;;;;;0.10;0.10;;;;;;;13.17;100.00;97911.41;6339538;22;20057;-48
2021/10/05 00:42:03;;;;;;;0.10;0.10;;;;;;;12.98;100.00;97910.75;6339570;22;20026;-48
2021/10/05 00:45:07;;;;;;;0.10;0.00;;;;;;;12.79;100.00;97918.50;6338916;22;20026;-48
2021/10/05 00:48:10;;;;;;;0.52;0.52;;;;;;;12.81;100.00;97911.09;6339460;22;20085;-48
2021/10/05 00:51:13;;;;;;;0.10;0.10;;;;;;;12.87;100.00;97902.59;6339514;22;20025;-48
2021/10/05 00:54:16;;;;;;;0.10;0.00;;;;;;;12.97;100.00;97889.72;6339542;22;20381;-48
2021/10/05 00:57:19;;;;;;;0.80;0.10;;;;;;;12.93;100.00;97884.44;6339168;22;20053;-48
2021/10/05 01:00:24;;;;;;;0.10;0.10;;;;;;;12.95;100.00;97881.84;6336960;22;20022;-48
2021/10/05 01:03:27;;;;;;;0.10;0.10;;;;;;;13.02;100.00;97874.09;6317342;22;20343;-48
2021/10/05 01:06:30;;;;;;;0.10;0.10;;;;;;;13.02;100.00;97863.66;6335887;22;20389;-48
2021/10/05 01:09:35;;;;;;;0.10;0.10;;;;;;;13.01;100.00;97864.97;6336048;22;20033;-48
2021/10/05 01:12:37;;;;;;;0.10;0.10;;;;;;;12.99;100.00;97858.44;6336722;22;20025;-48
2021/10/05 01:16:21;;;;;;;0.10;0.10;;;;;;;13.03;100.00;97865.19;6336699;22;20026;-48
2021/10/05 01:19:24;;;;;;;0.13;0.13;;;;;;;12.98;100.00;97860.47;6336549;22;20087;-47
2021/10/05 01:22:27;;;;;;;0.10;0.10;;;;;;;13.05;100.00;97865.44;6336845;22;20025;-49
2021/10/05 01:25:31;;;;;;;0.10;0.10;;;;;;;13.16;100.00;97853.25;6337723;22;20026;-50
2021/10/05 01:28:34;;;;;;;0.10;0.00;;;;;;;13.18;100.00;97853.47;6337656;22;20022;-49
2021/10/05 01:31:41;;;;;;;0.10;0.10;;;;;;;13.16;100.00;97848.41;6338731;22;20022;-49
2021/10/05 01:34:43;;;;;;;0.10;0.10;;;;;;;13.10;100.00;97841.44;6338347;22;20030;-49
2021/10/05 01:37:46;;;;;;;0.10;0.10;;;;;;;13.01;100.00;97839.84;6339240;22;20057;-49
2021/10/05 01:40:50;;;;;;;0.10;0.10;;;;;;;12.88;100.00;97842.66;6338856;22;20026;-49
2021/10/05 01:43:53;;;;;;;0.10;0.10;;;;;;;12.91;100.00;97836.72;6339193;22;20030;-49
2021/10/05 01:46:56;;;;;;;0.10;0.10;;;;;;;12.86;100.00;97829.19;6338058;22;20026;-48
2021/10/05 01:49:59;;;;;;;0.17;0.17;;;;;;;12.81;100.00;97832.13;6338610;22;20025;-49
2021/10/05 01:53:03;;;;;;;0.10;0.10;;;;;;;12.87;100.00;97825.13;6339111;22;20358;-48
2021/10/05 01:56:07;;;;;;;0.10;0.10;;;;;;;12.97;100.00;97805.13;6338354;22;20083;-48
2021/10/05 01:59:10;;;;;;;0.10;0.10;;;;;;;12.90;100.00;97801.72;6337859;22;20025;-48
2021/10/05 02:02:14;;;;;;;0.10;0.10;;;;;;;12.83;100.00;97796.03;6338547;22;20076;-48
2021/10/05 02:05:17;;;;;;;0.47;0.20;;;;;;;12.84;100.00;97800.34;6338521;22;20394;-48
2021/10/05 02:08:20;;;;;;;0.10;0.10;;;;;;;12.77;100.00;97801.75;6338399;22;20065;-48
2021/10/05 02:11:23;;;;;;;0.50;0.10;;;;;;;12.82;100.00;97806.44;6338112;22;20025;-48
2021/10/05 02:14:28;;;;;;;0.10;0.10;;;;;;;12.96;100.00;97798.78;6338808;22;20026;-48
2021/10/05 02:17:30;;;;;;;0.10;0.10;;;;;;;12.99;100.00;97796.94;6338155;22;20025;-48
2021/10/05 02:20:33;;;;;;;0.10;0.10;;;;;;;13.02;100.00;97799.41;6338282;22;20022;-48
2021/10/05 02:26:58;;;;;;;0.28;0.28;;;;;;;12.83;100.00;97790.44;6338937;22;20037;-48
2021/10/05 02:30:04;;;;;;;0.20;0.20;;;;;;;12.59;100.00;97779.53;6338887;22;20351;-48
2021/10/05 02:33:07;;;;;;;0.43;0.10;;;;;;;12.46;100.00;97779.53;6338712;22;20041;-48
2021/10/05 02:36:10;;;;;;;1.10;0.45;;;;;;;12.41;100.00;97777.63;6338359;22;20463;-48
2021/10/05 02:39:13;;;;;;;13.20;0.63;;;;;;;12.43;100.00;97769.47;6338567;22;20025;-48
2021/10/05 02:42:16;;;;;;;0.10;0.10;;;;;;;12.44;100.00;97776.53;6319561;22;20022;-48
2021/10/05 02:45:19;;;;;;;0.10;0.10;;;;;;;12.52;100.00;97757.84;6338417;22;20022;-48
2021/10/05 02:48:21;;;;;;;0.10;0.10;;;;;;;12.61;100.00;97751.81;6338148;22;20026;-48
2021/10/05 02:51:24;;;;;;;0.30;0.30;;;;;;;12.62;100.00;97751.28;6338405;22;20053;-48
2021/10/05 02:54:27;;;;;;;0.30;0.30;;;;;;;12.62;100.00;97747.75;6338526;22;20442;-48
2021/10/05 02:57:30;;;;;;;0.45;0.40;;;;;;;12.65;100.00;97741.06;6338122;22;20436;-48
2021/10/05 03:00:33;;;;;;;0.10;0.10;;;;;;;12.66;100.00;97742.56;6338175;22;20046;-48
2021/10/05 03:03:37;;;;;;;0.10;0.10;;;;;;;12.66;100.00;97729.38;6338313;22;20037;-48
2021/10/05 03:06:40;;;;;;;1.00;0.10;;;;;;;12.63;100.00;97738.81;6338082;22;20440;-48
2021/10/05 03:09:42;;;;;;;0.10;0.10;;;;;;;12.61;100.00;97735.06;6338140;22;20093;-48
2021/10/05 03:12:45;;;;;;;0.10;0.10;;;;;;;12.68;100.00;97737.19;6338087;22;20047;-48
2021/10/05 03:15:48;;;;;;;0.10;0.10;;;;;;;12.72;100.00;97740.41;6337976;22;20509;-48
2021/10/05 03:18:51;;;;;;;0.40;0.20;;;;;;;12.75;100.00;97737.28;6337493;22;20022;-48
2021/10/05 03:21:56;;;;;;;0.60;0.60;;;;;;;12.77;100.00;97742.31;6337917;22;20045;-48
2021/10/05 03:24:59;;;;;;;0.50;0.30;;;;;;;12.79;100.00;97728.56;6337577;22;20048;-48
2021/10/05 03:28:02;;;;;;;0.47;0.47;;;;;;;12.80;100.00;97730.06;6338331;22;20169;-48
2021/10/05 03:31:05;;;;;;;0.25;0.22;;;;;;;12.86;100.00;97734.22;6338316;22;20056;-48
2021/10/05 03:34:08;;;;;;;0.10;0.10;;;;;;;12.81;100.00;97735.13;6337921;22;20022;-48
2021/10/05 03:37:11;;;;;;;0.10;0.10;;;;;;;12.77;100.00;97731.91;6337964;22;20034;-48
2021/10/05 03:40:13;;;;;;;0.32;0.10;;;;;;;12.54;100.00;97728.09;6337955;22;20025;-48
2021/10/05 03:43:16;;;;;;;0.40;0.35;;;;;;;12.51;100.00;97720.06;6338451;22;20330;-48
2021/10/05 03:46:19;;;;;;;0.30;0.30;;;;;;;12.33;100.00;97727.28;6338936;22;20071;-48
2021/10/05 03:49:22;;;;;;;0.10;0.10;;;;;;;12.14;100.00;97735.03;6339650;22;20052;-48
2021/10/05 03:52:25;;;;;;;0.13;0.13;;;;;;;11.86;100.00;97741.16;6339627;22;20027;-48
2021/10/05 03:55:27;;;;;;;0.40;0.20;;;;;;;10.87;100.00;97737.22;6339765;22;20022;-48
2021/10/05 03:58:30;;;;;;;0.22;0.22;;;;;;;11.25;100.00;97744.22;6339538;22;20026;-48
2021/10/05 04:01:33;;;;;;;0.22;0.20;;;;;;;11.29;100.00;97753.00;6339427;22;20072;-48
2021/10/05 04:04:36;;;;;;;0.30;0.30;;;;;;;11.34;100.00;97743.81;6339681;22;20446;-48
2021/10/05 04:07:39;;;;;;;0.73;0.38;;;;;;;11.24;100.00;97742.72;6339812;22;20026;-48
2021/10/05 04:10:42;;;;;;;0.10;0.10;;;;;;;11.23;100.00;97750.31;6339519;22;20387;-48
2021/10/05 04:13:45;;;;;;;0.40;0.38;;;;;;;11.20;100.00;97748.59;6339509;22;20049;-48
2021/10/05 04:16:48;;;;;;;3.72;0.50;;;;;;;11.24;100.00;97742.72;6339270;22;20037;-48
2021/10/05 04:19:51;;;;;;;0.20;0.17;;;;;;;11.24;100.00;97740.66;6339556;22;20446;-48
2021/10/05 04:22:54;;;;;;;0.77;0.77;;;;;;;11.22;100.00;97746.03;6339435;22;20022;-48
2021/10/05 04:25:57;;;;;;;0.15;0.13;;;;;;;11.15;100.00;97737.56;6339561;22;20021;-48
2021/10/05 04:29:00;;;;;;;0.32;0.32;;;;;;;11.02;100.00;97737.50;6339308;22;20094;-48
2021/10/05 04:32:04;;;;;;;0.20;0.20;;;;;;;10.90;100.00;97748.03;6339292;22;20394;-48
2021/10/05 04:35:07;;;;;;;0.10;0.10;;;;;;;10.79;100.00;97741.88;6338881;22;20073;-48
2021/10/05 04:38:11;;;;;;;0.35;0.35;;;;;;;10.71;100.00;97741.00;6338786;22;20065;-48
2021/10/05 04:41:13;;;;;;;0.98;0.52;;;;;;;10.61;100.00;97743.41;6339089;22;20474;-48
2021/10/05 04:44:16;;;;;;;1.23;0.70;;;;;;;10.49;100.00;97759.50;6338948;22;20033;-48
2021/10/05 04:47:19;;;;;;;6.22;1.00;;;;;;;10.44;100.00;97757.53;6338785;22;20025;-48
2021/10/05 04:50:22;;;;;;;0.40;0.40;;;;;;;10.48;100.00;97762.81;6339270;22;20331;-48
2021/10/05 04:53:24;;;;;;;0.47;0.40;;;;;;;10.42;100.00;97754.53;6339015;22;20049;-48
2021/10/05 04:56:27;;;;;;;3.40;0.40;;;;;;;10.38;100.00;97751.28;6338732;22;20021;-48
2021/10/05 04:59:32;;;;;;;0.10;0.10;;;;;;;10.34;100.00;97748.06;6319862;22;20037;-48
2021/10/05 05:02:34;;;;;;;2.22;0.43;;;;;;;10.39;100.00;97752.81;6338833;22;20068;-48
2021/10/05 05:05:38;;;;;;;0.10;0.10;;;;;;;10.43;100.00;97761.63;6339030;22;20025;-48
2021/10/05 05:08:41;;;;;;;0.47;0.47;;;;;;;10.57;100.00;97749.28;6339329;22;20030;-48
2021/10/05 05:11:44;;;;;;;0.15;0.13;;;;;;;10.67;100.00;97752.44;6339286;22;20043;-48
2021/10/05 05:14:47;;;;;;;0.10;0.10;;;;;;;10.94;100.00;97753.31;6339110;22;20029;-48
2021/10/05 05:17:51;;;;;;;0.10;0.10;;;;;;;11.04;100.00;97748.88;6338953;22;20106;-48
2021/10/05 05:20:54;;;;;;;0.20;0.20;;;;;;;11.18;100.00;97751.16;6339017;22;20021;-48
2021/10/05 05:23:58;;;;;;;0.20;0.20;;;;;;;11.35;100.00;97748.09;6338657;22;20429;-48
2021/10/05 05:27:01;;;;;;;0.47;0.17;;;;;;;11.44;100.00;97740.09;6338900;22;20037;-48
2021/10/05 05:30:06;;;;;;;0.22;0.22;;;;;;;11.58;100.00;97749.25;6338932;22;20339;-48
2021/10/05 05:33:09;;;;;;;0.20;0.20;;;;;;;11.61;100.00;97741.84;6339071;22;20458;-48
2021/10/05 05:36:12;;;;;;;0.57;0.20;;;;;;;11.62;100.00;97744.09;6339256;22;20450;-48
2021/10/05 05:39:16;;;;;;;5.53;0.35;;;;;;;11.73;100.00;97752.28;6338618;22;20022;-48
2021/10/05 05:42:19;;;;;;;9.23;1.50;;;;;;;11.79;100.00;97747.34;6339094;22;20457;-48
2021/10/05 05:45:22;;;;;;;1.02;0.30;;;;;;;11.84;100.00;97749.31;6338792;22;20095;-48
2021/10/05 05:48:24;;;;;;;2.67;0.98;;;;;;;11.84;100.00;97746.50;6338854;22;20022;-48
2021/10/05 05:51:27;;;;;;;6.30;0.90;;;;;;;11.77;100.00;97755.50;6319497;22;20022;-48
2021/10/05 05:54:30;;;;;;;2.28;1.05;;;;;;;11.86;100.00;97749.53;6338681;22;20057;-49
2021/10/05 05:57:33;;;;;;;0.63;0.40;;;;;;;11.85;100.00;97750.03;6338794;22;20079;-48
2021/10/05 06:00:36;;;;;;;7.38;0.68;;;;;;;11.88;100.00;97744.16;6338947;22;20025;-49
2021/10/05 06:03:38;;;;;;;0.20;0.10;;;;;;;11.81;100.00;97744.03;6338577;22;20025;-49
2021/10/05 06:06:41;;;;;;;2.53;0.75;;;;;;;11.75;100.00;97743.38;6338390;22;20029;-49
2021/10/05 06:09:44;;;;;;;0.95;0.80;;;;;;;11.79;100.00;97747.34;6338733;22;20021;-49
2021/10/05 06:12:47;;;;;;;0.75;0.17;;;;;;;11.79;100.00;97744.56;6338866;22;20029;-49
2021/10/05 06:15:50;;;;;;;0.10;0.10;;;;;;;11.74;100.00;97742.63;6338610;22;20148;-49
2021/10/05 06:18:53;;;;;;;0.20;0.20;;;;;;;11.75;100.00;97746.94;6338649;22;20026;-49
2021/10/05 06:21:56;;;;;;;0.10;0.10;;;;;;;11.67;100.00;97746.06;6338313;22;20060;-49
2021/10/05 06:24:59;;;;;;;0.10;0.10;;;;;;;11.80;100.00;97759.28;6338898;22;20068;-49
2021/10/05 06:28:03;;;;;;;0.38;0.22;;;;;;;11.76;100.00;97756.78;6338590;22;20071;-49
2021/10/05 06:31:05;;;;;;;0.20;0.20;;;;;;;11.68;100.00;97764.28;6319479;22;20067;-49
2021/10/05 06:34:09;;;;;;;0.20;0.17;;;;;;;11.67;100.00;97762.81;6338301;22;20021;-49
2021/10/05 06:37:11;;;;;;;0.32;0.20;;;;;;;11.67;100.00;97768.38;6338601;22;20160;-49
2021/10/05 06:40:15;;;;;;;0.10;0.10;;;;;;;11.64;100.00;97772.19;6338316;22;20073;-49
2021/10/05 06:43:19;;;;;;;0.20;0.20;;;;;;;11.67;100.00;97779.53;6338574;22;20080;-48
2021/10/05 06:46:22;;;;;;;1.45;0.35;;;;;;;11.64;100.00;97780.56;6338006;22;20048;-48
2021/10/05 06:49:25;;;;;;;0.43;0.35;;;;;;;11.65;100.00;97770.16;6338321;22;20451;-49
2021/10/05 06:52:29;;;;;;;0.30;0.30;;;;;;;11.66;100.00;97774.44;6337916;22;20059;-49
2021/10/05 06:55:32;;;;;;;0.32;0.30;;;;;;;11.75;100.00;97774.81;6338177;22;20064;-48
2021/10/05 06:58:35;;;;;;;0.35;0.22;;;;;;;11.72;100.00;97775.13;6337364;22;20021;-48
2021/10/05 07:01:38;;;;;;;0.50;0.10;;;;;;;11.75;100.00;97776.84;6338471;22;20025;-48
2021/10/05 07:04:41;;;;;;;0.65;0.50;;;;;;;11.78;100.00;97778.56;6338012;22;20377;-48
2021/10/05 07:07:46;;;;;;;0.15;0.10;;;;;;;11.80;100.00;97781.59;6337815;22;20029;-48
2021/10/05 07:10:49;;;;;;;2.03;0.50;;;;;;;11.83;100.00;97783.28;6337984;22;20022;-48
2021/10/05 07:13:52;;;;;;;0.77;0.38;;;;;;;11.84;100.00;97788.34;6338639;22;20021;-48
2021/10/05 07:16:55;;;;;;;0.30;0.30;;;;;;;11.74;100.00;97789.28;6338224;22;20026;-48
2021/10/05 07:19:59;;;;;;;1.23;0.43;;;;;;;11.74;100.00;97790.03;6338135;22;20040;-48
2021/10/05 07:23:03;;;;;;;0.28;0.28;;;;;;;11.78;100.00;97798.09;6339944;22;20100;-48
2021/10/05 07:26:06;;;;;;;0.30;0.30;;;;;;;11.79;100.00;97802.38;6340045;22;20160;-48
2021/10/05 07:29:09;;;;;;;0.68;0.30;;;;;;;11.79;100.00;97808.72;6339805;22;20030;-48
2021/10/05 07:32:13;;;;;;;0.50;0.20;;;;;;;11.82;100.00;97818.81;6340126;22;20060;-48
2021/10/05 07:35:16;;;;;;;0.57;0.55;;;;;;;11.92;100.00;97807.97;6339574;22;20022;-50
2021/10/05 07:38:19;;;;;;;1.10;0.20;;;;;;;11.86;100.00;97810.88;6339849;22;20064;-49
2021/10/05 07:41:22;;;;;;;0.30;0.30;;;;;;;11.80;100.00;97810.19;6339690;22;20068;-49
2021/10/05 07:44:25;;;;;;;0.28;0.20;;;;;;;11.90;100.00;97814.09;6339871;22;20098;-49
2021/10/05 07:47:28;;;;;;;1.58;0.22;;;;;;;11.94;100.00;97814.53;6339481;22;20045;-49
2021/10/05 07:50:33;;;;;;;0.22;0.22;;;;;;;12.02;100.00;97820.97;6339721;22;20455;-49
2021/10/05 07:53:36;;;;;;;0.40;0.30;;;;;;;11.94;100.00;97822.91;6339690;22;20025;-49
2021/10/05 07:56:38;;;;;;;0.20;0.20;;;;;;;12.16;100.00;97825.28;6339896;22;20547;-48
2021/10/05 07:59:41;;;;;;;0.85;0.60;;;;;;;12.30;100.00;97830.88;6339132;22;20385;-48
2021/10/05 08:02:45;;;;;;;0.60;0.60;;;;;;;12.33;100.00;97833.34;6339413;22;20370;-48
2021/10/05 08:05:47;;;;;;;0.63;0.30;;;;;;;12.58;100.00;97836.69;6339484;22;20026;-49
2021/10/05 08:08:51;;;;;;;0.45;0.45;;;;;;;12.80;100.00;97836.19;6339978;22;20099;-49
2021/10/05 08:11:53;;;;;;;2.33;0.75;;;;;;;13.01;100.00;97834.25;6339589;22;20020;-49
2021/10/05 08:14:56;;;;;;;0.60;0.47;;;;;;;13.17;100.00;97835.94;6339748;22;20071;-49
2021/10/05 08:17:59;;;;;;;1.75;0.20;;;;;;;13.17;100.00;97835.19;6340016;22;20040;-49
2021/10/05 08:21:03;;;;;;;2.00;0.52;;;;;;;13.15;100.00;97838.53;6320690;22;20076;-49
2021/10/05 08:24:06;;;;;;;0.20;0.10;;;;;;;13.16;100.00;97851.22;6339511;22;20033;-49
2021/10/05 08:27:10;;;;;;;2.92;0.70;;;;;;;13.18;100.00;97851.44;6339418;22;20126;-49
2021/10/05 08:30:13;;;;;;;2.53;1.13;;;;;;;13.18;100.00;97848.63;6339590;22;20018;-49
2021/10/05 08:33:16;;;;;;;1.48;0.90;;;;;;;13.41;100.00;97854.44;6339129;22;20025;-49
2021/10/05 08:36:19;;;;;;;2.72;1.45;;;;;;;13.59;100.00;97859.88;6339624;22;20068;-48
2021/10/05 08:39:23;;;;;;;5.28;1.50;;;;;;;13.65;100.00;97863.28;6339403;22;20090;-49
2021/10/05 08:42:26;;;;;;;7.63;3.05;;;;;;;13.53;100.00;97862.06;6339563;22;20103;-49
2021/10/05 08:45:29;;;;;;;3.47;2.00;;;;;;;13.53;100.00;97867.66;6339119;22;20044;-49
2021/10/05 08:48:34;;;;;;;3.75;1.42;;;;;;;13.70;100.00;97875.66;6339531;22;20056;-49
2021/10/05 08:51:38;;;;;;;4.90;2.10;;;;;;;13.60;100.00;97880.94;6338685;22;20036;-48
2021/10/05 08:54:42;;;;;;;3.42;1.45;;;;;;;13.50;100.00;97879.91;6339336;22;20120;-48
2021/10/05 08:57:48;;;;;;;3.10;1.70;;;;;;;13.46;100.00;97885.09;6339015;22;20021;-49
2021/10/05 09:00:53;;;;;;;2.50;0.85;;;;;;;13.41;100.00;97901.97;6339491;22;20098;-49
2021/10/05 09:03:56;;;;;;;3.20;1.10;;;;;;;13.59;100.00;97901.84;6338980;22;20377;-49
2021/10/05 09:06:59;;;;;;;2.25;1.52;;;;;;;13.57;100.00;97912.06;6339241;22;20079;-49
2021/10/05 09:10:03;;;;;;;2.42;0.88;;;;;;;13.57;100.00;97915.63;6338743;22;20063;-49
2021/10/05 09:13:06;;;;;;;13.55;0.93;;;;;;;13.47;100.00;97925.00;6339090;22;20029;-49
2021/10/05 09:16:18;;;;;;;2.15;0.57;;;;;;;13.44;100.00;97923.28;6339001;22;20114;-49
2021/10/05 09:19:22;;;;;;;0.40;0.35;;;;;;;13.45;100.00;97927.56;6338850;22;20021;-49
2021/10/05 09:22:29;;;;;;;0.50;0.50;;;;;;;13.38;100.00;97926.19;6338884;22;20503;-49
2021/10/05 09:25:38;;;;;;;1.15;0.73;;;;;;;13.35;100.00;97938.47;6339331;22;20030;-49
2021/10/05 09:28:41;;;;;;;1.10;0.70;;;;;;;13.45;100.00;97936.72;6338489;22;20026;-50
2021/10/05 09:31:56;;;;;;;0.88;0.63;;;;;;;13.47;100.00;97948.09;6338858;22;20390;-49
2021/10/05 09:35:00;;;;;;;0.88;0.50;;;;;;;13.44;100.00;97938.03;6338625;22;20046;-47
2021/10/05 09:38:11;;;;;;;0.43;0.25;;;;;;;13.47;100.00;97936.91;6338664;22;20040;-47
2021/10/05 09:41:14;;;;;;;0.17;0.17;;;;;;;13.45;100.00;97949.94;6338554;22;20348;-49
2021/10/05 09:44:25;;;;;;;0.30;0.30;;;;;;;13.55;100.00;97957.34;6338444;22;20072;-49
2021/10/05 09:47:31;;;;;;;0.22;0.22;;;;;;;13.64;100.00;97954.06;6338398;22;20026;-47
2021/10/05 09:50:35;;;;;;;0.50;0.20;;;;;;;13.68;100.00;97962.91;6338698;22;20351;-49
2021/10/05 09:53:38;;;;;;;2.20;0.32;;;;;;;13.62;100.00;97961.53;6338858;22;20025;-49
2021/10/05 09:56:41;;;;;;;0.55;0.55;;;;;;;13.68;100.00;97970.53;6338225;22;20025;-48
2021/10/05 09:59:44;;;;;;;1.85;0.77;;;;;;;13.65;100.00;97966.03;6318978;22;20058;-48
2021/10/05 10:02:48;;;;;;;4.50;0.77;;;;;;;13.58;100.00;97964.66;6339029;22;20025;-48
2021/10/05 10:05:51;;;;;;;2.38;0.70;;;;;;;13.59;100.00;97977.34;6338586;22;20022;-49
2021/10/05 10:08:56;;;;;;;2.60;0.98;;;;;;;13.67;100.00;97989.38;6338297;22;20344;-48
2021/10/05 10:12:02;;;;;;;3.83;1.40;;;;;;;13.81;100.00;97983.75;6339003;22;20386;-48
2021/10/05 10:15:08;;;;;;;1.67;0.63;;;;;;;13.81;100.00;97986.53;6338794;22;20025;-48
2021/10/05 10:18:11;;;;;;;2.42;0.82;;;;;;;13.71;100.00;98005.81;6338784;22;20151;-48
2021/10/05 10:21:14;;;;;;;0.85;0.65;;;;;;;13.74;100.00;98001.19;6338215;22;20026;-48
2021/10/05 10:24:19;;;;;;;7.95;1.55;;;;;;;13.67;100.00;98006.16;6338653;22;20334;-48
2021/10/05 10:27:22;;;;;;;3.15;1.55;;;;;;;13.60;100.00;98014.44;6338741;22;20025;-48
2021/10/05 10:30:28;;;;;;;4.05;1.02;;;;;;;13.59;100.00;98016.50;6338697;22;20021;-48
2021/10/05 10:33:46;;;;;;;1.35;0.75;;;;;;;13.54;100.00;98022.97;6338192;22;20021;-48
2021/10/05 10:36:50;;;;;;;0.70;0.38;;;;;;;13.45;100.00;98047.81;6338482;22;20025;-49
2021/10/05 10:39:53;;;;;;;0.22;0.20;;;;;;;13.45;100.00;98045.00;6338766;22;20053;-49
2021/10/05 10:42:56;;;;;;;0.75;0.45;;;;;;;13.36;100.00;98065.78;6338833;22;20041;-49
2021/10/05 10:46:02;;;;;;;0.90;0.40;;;;;;;13.27;100.00;98068.25;6338144;22;20048;-49
2021/10/05 10:49:19;;;;;;;1.42;0.65;;;;;;;13.21;100.00;98076.00;6338958;22;20516;-49
2021/10/05 10:52:27;;;;;;;0.10;0.10;;;;;;;13.08;100.00;98085.09;6338095;22;20101;-49
2021/10/05 10:55:35;;;;;;;0.22;0.20;;;;;;;13.15;100.00;98092.84;6338691;22;20107;-49
2021/10/05 10:58:42;;;;;;;0.10;0.10;;;;;;;13.29;100.00;98088.81;6339875;22;20144;-49
2021/10/05 11:01:50;;;;;;;0.77;0.35;;;;;;;13.27;100.00;98096.97;6340590;22;20090;-49
2021/10/05 11:04:53;;;;;;;0.30;0.20;;;;;;;13.25;100.00;98110.72;6340195;22;20041;-49
2021/10/05 11:07:57;;;;;;;1.05;0.73;;;;;;;13.57;100.00;98114.19;6340484;22;20030;-49
2021/10/05 11:11:03;;;;;;;0.10;0.10;;;;;;;13.87;100.00;98110.28;6340009;22;20060;-49
2021/10/05 11:14:10;;;;;;;0.45;0.20;;;;;;;13.88;100.00;98097.81;6340325;22;20029;-51
2021/10/05 11:17:12;;;;;;;0.10;0.10;;;;;;;13.67;100.00;98117.28;6320973;22;20029;-48
2021/10/05 11:20:15;;;;;;;1.08;0.32;;;;;;;13.62;100.00;98121.69;6340196;22;20026;-49
2021/10/05 11:23:21;;;;;;;0.10;0.00;;;;;;;13.63;100.00;98126.00;6340084;22;20068;-49
2021/10/05 11:26:37;;;;;;;0.40;0.35;;;;;;;13.48;100.00;98134.19;6340204;22;20025;-48
2021/10/05 11:29:40;;;;;;;0.10;0.10;;;;;;;13.33;100.00;98145.16;6339553;22;20022;-49
2021/10/05 11:32:48;;;;;;;4.68;0.30;;;;;;;13.24;100.00;98148.34;6340078;22;20022;-48
2021/10/05 11:35:53;;;;;;;0.52;0.30;;;;;;;13.31;100.00;98152.56;6339792;22;20057;-46
2021/10/05 11:38:56;;;;;;;0.40;0.13;;;;;;;13.43;100.00;98153.84;6340290;22;20319;-46
2021/10/05 11:42:04;;;;;;;0.30;0.20;;;;;;;13.37;100.00;98156.00;6340238;22;20339;-48
2021/10/05 11:45:07;;;;;;;6.82;0.40;;;;;;;13.30;100.00;98157.38;6339925;22;20026;-48
2021/10/05 11:48:10;;;;;;;0.20;0.10;;;;;;;13.28;100.00;98154.38;6339904;22;20347;-49
2021/10/05 11:51:15;;;;;;;0.45;0.45;;;;;;;13.41;100.00;98165.59;6339281;22;20029;-48
2021/10/05 11:54:20;;;;;;;0.32;0.20;;;;;;;13.45;100.00;98154.81;6339657;22;20458;-48
2021/10/05 11:57:28;;;;;;;0.10;0.10;;;;;;;13.41;100.00;98173.97;6339584;22;20379;-49
2021/10/05 12:00:31;;;;;;;10.10;0.32;;;;;;;13.31;100.00;98180.50;6339318;22;20358;-48
2021/10/05 12:03:34;;;;;;;1.88;0.32;;;;;;;13.18;100.00;98178.44;6340013;22;20415;-48
2021/10/05 12:06:49;;;;;;;0.60;0.55;;;;;;;13.13;100.00;98172.94;6339575;22;20153;-48
2021/10/05 12:10:02;;;;;;;0.10;0.10;;;;;;;13.16;100.00;98192.22;6339662;22;20068;-49
2021/10/05 12:13:15;;;;;;;0.20;0.20;;;;;;;13.39;100.00;98192.56;6339532;22;20052;-48
2021/10/05 12:16:18;;;;;;;0.10;0.10;;;;;;;13.31;100.00;98202.88;6339677;22;20121;-48
2021/10/05 12:19:30;;;;;;;0.30;0.10;;;;;;;13.19;100.00;98207.91;6339778;22;20077;-48
2021/10/05 12:22:36;;;;;;;0.45;0.10;;;;;;;13.04;100.00;98213.19;6339377;22;20095;-49
2021/10/05 12:25:41;;;;;;;0.45;0.28;;;;;;;12.95;100.00;98210.78;6339321;22;20395;-49
2021/10/05 12:29:00;;;;;;;0.10;0.10;;;;;;;12.92;100.00;98217.47;6339505;22;20029;-49
2021/10/05 12:32:02;;;;;;;0.40;0.25;;;;;;;13.08;100.00;98222.03;6339779;22;20064;-49
2021/10/05 12:35:18;;;;;;;0.95;0.20;;;;;;;13.87;100.00;98236.19;6339245;22;20091;-49
2021/10/05 12:38:21;;;;;;;2.20;0.20;;;;;;;14.05;100.00;98240.94;6339497;22;20022;-52
2021/10/05 12:41:24;;;;;;;0.25;0.17;;;;;;;13.84;100.00;98234.50;6338839;22;20030;-50
2021/10/05 12:44:26;;;;;;;0.63;0.45;;;;;;;13.75;100.00;98246.09;6338916;22;20023;-49
2021/10/05 12:47:30;;;;;;;1.05;0.35;;;;;;;13.89;100.00;98244.81;6339036;22;20123;-50
2021/10/05 12:50:43;;;;;;;0.20;0.17;;;;;;;13.92;100.00;98240.94;6339181;22;20064;-50
2021/10/05 12:53:49;;;;;;;1.08;0.20;;;;;;;14.16;100.00;98251.94;6339169;22;20064;-49
2021/10/05 12:56:52;;;;;;;10.73;1.23;;;;;;;14.44;100.00;98246.56;6339304;22;20463;-49
2021/10/05 12:59:55;;;;;;;0.17;0.17;;;;;;;14.66;100.00;98248.88;6339455;22;20022;-50
2021/10/05 13:02:58;;;;;;;1.20;0.40;;;;;;;14.65;100.00;98252.22;6339842;22;20040;-49
2021/10/05 13:06:02;;;;;;;0.30;0.22;;;;;;;14.53;100.00;98267.78;6339298;22;20021;-48
2021/10/05 13:09:07;;;;;;;0.85;0.63;;;;;;;14.28;100.00;98265.19;6339300;22;20462;-49
2021/10/05 13:12:11;;;;;;;0.25;0.10;;;;;;;13.96;100.00;98252.56;6339247;22;20018;-48
2021/10/05 13:15:14;;;;;;;0.38;0.10;;;;;;;13.83;100.00;98247.72;6338703;22;20071;-49
2021/10/05 13:18:17;;;;;;;3.22;0.28;;;;;;;13.60;100.00;98268.97;6338768;22;20377;-48
2021/10/05 13:21:20;;;;;;;0.20;0.13;;;;;;;13.38;100.00;98286.88;6338745;22;20434;-50
2021/10/05 13:24:23;;;;;;;0.63;0.20;;;;;;;13.22;100.00;98285.09;6337404;22;20097;-51
2021/10/05 13:27:26;;;;;;;1.55;0.28;;;;;;;13.11;100.00;98281.72;6338391;22;20356;-50
2021/10/05 13:30:29;;;;;;;0.95;0.45;;;;;;;13.27;100.00;98295.47;6338733;22;20458;-50
2021/10/05 13:33:32;;;;;;;0.52;0.52;;;;;;;13.16;100.00;98298.41;6338260;22;20048;-51
2021/10/05 13:36:36;;;;;;;0.45;0.22;;;;;;;13.05;100.00;98304.16;6338637;22;20029;-52
2021/10/05 14:30:05;;;;;;;0.55;0.55;;;;;;;13.02;100.00;98355.50;6265902;22;1293412;-51
2021/10/05 14:33:08;;;;;;;0.10;0.10;;;;;;;13.06;100.00;98372.75;6316025;22;20026;-51
2021/10/05 14:36:11;;;;;;;0.20;0.20;;;;;;;13.11;100.00;98379.53;6316028;22;20025;-51
2021/10/05 14:39:13;;;;;;;2.67;0.80;;;;;;;13.26;100.00;98375.00;6315228;22;20385;-51
2021/10/05 14:42:17;;;;;;;0.75;0.22;;;;;;;13.26;100.00;98377.81;6315773;22;20050;-51
2021/10/05 14:45:20;;;;;;;1.15;0.52;;;;;;;13.19;100.00;98381.19;6315744;22;20038;-51
2021/10/05 14:48:23;;;;;;;0.50;0.25;;;;;;;13.04;100.00;98414.41;6315867;22;20018;-52
2021/10/05 14:51:26;;;;;;;0.40;0.32;;;;;;;12.92;100.00;98418.63;6315557;22;20022;-52
2021/10/05 14:54:29;;;;;;;0.30;0.30;;;;;;;12.82;100.00;98423.06;6315191;22;20396;-54
2021/10/05 14:57:32;;;;;;;3.95;0.88;;;;;;;12.62;100.00;98412.38;6315248;22;20029;-54
2021/10/05 15:00:34;;;;;;;0.47;0.20;;;;;;;12.44;100.00;98424.25;6315653;22;20022;-51
2021/10/05 15:03:37;;;;;;;0.80;0.73;;;;;;;12.29;100.00;98402.31;6315624;22;20053;-53
2021/10/05 15:06:40;;;;;;;0.30;0.30;;;;;;;12.24;100.00;98427.47;6315671;22;20030;-52
2021/10/05 15:09:43;;;;;;;0.15;0.10;;;;;;;12.22;100.00;98449.56;6315528;22;20465;-53